Create Custom Reports and Graphics: Custom Report

Latest Observations

Map

15 Minute Data

South County Map

Map

15 Minute Data

Northern Sonoma County Latest

15 Stations

15 Minute Data | America/Los_Angeles
as of 8/5/21 2:20 AM PDT
Station Date Time Temp (°F) RH (%) Dew Pt (°F) Wind Spd (mph) Wind Dir (°) Wind Gust (mph) Latest Rain (In) Daily Rain (In) Daily Min Temp (°F) Daily Max Temp (°F)
Rockpile Lower (Cooley) 8/5/21 0200 52.4   10.4 97   59 51.6   14.4 0.8 ESE | 107 2.3   0.8 0.00 0.00 52.3   9.3 54.9   16.5
Rockpile Upper (Cooley) 8/5/21 0215 50.4   17.6 98   71 49.8   16.6 2.4 SSE | 147 3.7   9.0 0.00 0.00 49.8   17.7 56.9   12.4
Cloverdale-East (Ranch 83) 8/5/21 0215 56.6   4.3 88   1 53.2   4.5 2.3 SE | 134 5.8   4.2 0.00 0.00 55.2   3.2 56.8   1.0
Cloverdale-SE (Ranch 38) 8/5/21 0215 54.7   1.4 94   3 53.0   2.4 3.6 SSE | 158 6.2   2.3 0.00 0.00 54.4   1.6 55.1   0.7
Geyserville-North (Hoffman) 8/5/21 0215 57.2   4.0 88   6 53.6   2.3 2.3 SE | 142 4.3   0.8 0.00 0.00 56.8   3.9 57.7   2.7
Geyserville (Ranch 3) 8/5/21 0215 57.4   4.6 89   5 54.3   3.1 2.9 SE | 146 5.2   2.8 0.00 0.00 57.2   4.6 57.8   3.5
Geyserville-East (Ranch 40) 8/5/21 0215 54.6   2.6 97   1 53.7   2.3 5.8 SSE | 162 10.6   5.7 0.00 0.00 54.3   2.5 54.8   1.9
Geyserville-South (Nervo Station) 8/5/21 0215 56.6   2.8 91   5 54.0   1.3 1.5 SE | 137 5.1   1.3 0.00 0.00 56.1   3.3 57.1   2.9
Lytton (River Oaks) 8/5/21 0215 57.3   6.1 90   5 54.3   4.6 2.4 E | 98 5.5   3.6 0.00 0.00 57.1   6.6 57.7   4.8
Jimtown-North (Piccolo-R15) 8/5/21 0215 57.2   4.9 83   1 52.0   5.3 1.3 SSE | 167 4.2   3.1 0.00 0.00 56.9   6.3 57.9   3.8
Jimtown-NE (Red Fan) 8/5/21 0215 57.4   3.5 90   4 54.6   2.3 2.4 SSE | 152 4.6   3.4 0.00 0.00 57.4   5.1 58.0   3.6
HWY 128/Chalk Hill Rd (Landslide) 8/5/21 0215 56.6   1.4 93   0 54.5   1.3 2.1 SE | 130 4.4   0.1 0.00 0.00 56.4   2.1 57.4   2.1
Knights Valley (Bavarian Lion) 8/5/21 0215 55.9   6.4 93   1 53.8   6.5 1.5 NW | 305 2.9   1.2 0.00 0.00 53.0   3.7 56.0   4.4
Upper Dry Creek Valley 8/5/21 0215 57.1   2.7 91   5 54.6   1.3 2.6 SSE | 162 5.9   1.7 0.00 0.00 57.1   4.0 57.5   3.0
Lower Dry Creek Valley 8/5/21 0215 56.8   2.2 91   4 54.3   0.9 1.6 S | 172 3.5   0.0 0.00 0.00 56.6   2.6 57.4   2.8
Max     57.4 98 54.6 5.8 - 10.6 0.00 0.00 57.4 58.0
Avg     55.9 91 53.4 2.4 - 5.0 0.00 - - -
Min     50.4 83 49.8 0.8 - 2.3 0.00 0.00 49.8 54.8

Central Sonoma County Latest

28 Stations

15 Minute Data | America/Los_Angeles
as of 8/5/21 2:20 AM PDT
Station Date Time Temp (°F) RH (%) Dew Pt (°F) Wind Spd (mph) Wind Dir (°) Wind Gust (mph) Latest Rain (In) Daily Rain (In) Daily Min Temp (°F) Daily Max Temp (°F)
Healdsburg-South (Sodini) 8/5/21 0215 56.7   1.0 90   1 53.8   0.6 3.3 S | 170 5.8   0.7 0.00 0.00 56.4   1.3 57.4   1.5
Windsor-NW (Ranch 8) 8/5/21 0215 57.0   2.0 84   2 52.2   1.4 0.0 N | 0 0.0   0.0 0.00 0.00 56.7   1.9 57.3   1.6
Windsor-East (Ranch 16) 8/5/21 0215 56.4   0.6 92   2 54.2   1.1 2.7 SSE | 160 5.6   0.9 0.00 0.00 56.3   0.6 57.0   0.8
Mark West-North (Ranch 14) 8/5/21 0215 56.6   1.1 91   3 53.9   0.3 1.5 S | 178 4.4   0.4 0.00 0.00 56.5   1.3 57.0   1.0
Windsor-SE (Silk Rd) 8/5/21 0215 57.0   1.5 91   5 54.4   0.1 2.2 ESE | 118 5.1   0.9 0.00 0.00 56.6   1.5 57.1   1.4
Fulton-NW (Ranch 5) 8/5/21 0215 56.5   1.3 93   3 54.4   0.5 2.6 S | 172 5.0   0.0 0.00 0.00 56.2   1.2 57.2   1.3
Windsor-South (Laughlin Rd) 8/5/21 0215 56.4   1.2 - - - - - 0.00 0.00 56.1   1.4 56.8   1.2
Fulton-SE (Barnes Rd) 8/5/21 0215 56.4   0.9 91   1 53.7   0.4 2.2 ENE | 61 5.5   0.5 0.00 0.00 56.2   0.8 56.9   0.4
Fulton-SW (Ranch 21) 8/5/21 0215 56.5   1.6 90   6 53.7   0.0 1.1 S | 174 3.1   2.4 0.00 0.00 56.2   1.5 56.7   1.4
Santa Rosa-NW (Goldfields) 8/5/21 0215 56.6   1.9 91   7 54.0   0.1 1.4 SSE | 167 3.2   2.4 0.00 0.00 56.3   1.7 56.8   1.4
NW Santa Rosa (Piner Road) 8/5/21 0215 56.5   1.6 90   5 53.8   0.1 0.4 SSW | 213 3.2   1.1 0.00 0.00 56.2   1.4 56.7   1.2
River Rd South (Denner Ranch) 8/5/21 0215 56.1   1.8 92   6 53.7   0.0 2.5 SE | 143 5.0   2.8 0.00 0.00 54.6   0.5 56.4   1.6
West Santa Rosa (Hawk's Roost) 8/5/21 0215 56.7   1.5 90   6 53.8   0.2 1.0 S | 186 3.5   0.7 0.00 0.00 55.0   0.0 56.7   1.4
Guerneville Rd (Prokopakis) 8/5/21 0215 56.8   1.8 91   7 54.1   0.2 - - - 0.00 0.00 53.7   1.2 56.9   1.6
Guerneville Rd West (Balletto) 8/5/21 0215 56.4   1.0 91   4 54.0   0.0 0.3 SSW | 213 1.4   2.6 0.00 0.00 54.7   0.4 56.7   1.1
Guerneville Rd East (Rich Ranch) 8/5/21 0215 56.9   1.9 89   7 53.7   0.3 - - - - - 56.8   1.8 57.3   1.7
Occidental Rd (Sebastopol) 8/5/21 0215 56.5   1.3 100   0 56.5   1.3 1.2 W | 264 3.5   0.7 0.00 0.00 56.1   1.1 56.9   1.1
Lower Westside Rd (Ranch 12) 8/5/21 0215 56.5   2.3 90   7 53.8   0.3 2.3 W | 261 4.3   2.6 0.00 0.00 56.4   2.4 56.9   2.6
Guerneville (Laughlin Rd) 8/5/21 0215 56.6   5.5 90   3 53.8   4.5 0.2 WNW | 302 1.4   1.1 0.00 0.00 56.4   9.6 56.7   4.9
Korbel (Winery) 8/5/21 0215 57.2   2.7 91   1 54.7   2.3 1.6 NW | 310 3.8   0.4 0.00 0.00 56.6   4.0 57.3   2.7
Forestville (Shone Farms) 8/5/21 0215 57.1   2.6 90   6 54.2   0.9 1.4 WSW | 249 4.4   2.7 0.00 0.00 56.3   2.5 58.3   2.9
Forestville-NE (Ranch 30) 8/5/21 0215 56.6   2.9 91   6 53.8   1.1 1.9 NW | 308 5.4   2.8 0.00 0.00 56.4   2.9 57.2   3.1
Graton-West (Dutton Ranch) 8/5/21 0215 55.7   0.8 100   0 55.7   0.8 0.4 N | 4 1.5   0.7 0.00 0.00 51.5   3.0 56.0   0.7
Graton-South (Mill Station Rd) 8/5/21 0215 56.3   1.4 92   5 53.9   0.1 0.5 NW | 321 1.8   0.7 0.00 0.00 54.3   0.1 56.5   1.3
Occidental (Horseshoe Bend) 8/5/21 0215 53.9   0.8 97   3 53.0   0.1 - - - - - 53.8   0.9 54.3   0.9
Sexton Valley (Jacqueline's Blk) 8/5/21 0215 56.1   1.7 91   5 53.6   0.3 0.9 WSW | 248 2.2   0.5 0.00 0.00 56.0   1.7 56.4   1.1
Sebastopol Hills (Burnside Rd) 8/5/21 0215 54.1   0.6 99   1 53.9   0.3 2.4 W | 260 5.3   2.4 0.00 0.00 54.0   0.7 54.7   0.7
Seaview/Fort Ross (Hirsch) 8/5/21 0215 50.1   19.3 97   70 49.2   15.4 3.4 N | 11 5.6   2.6 0.00 0.00 49.9   18.9 50.9   19.5
Max     57.2 100 56.5 3.4 - 5.8 0.00 0.00 56.8 58.3
Avg     56.1 92 53.8 1.6 - 3.7 0.00 - - -
Min     50.1 84 49.2 0.0 - 0.0 0.00 0.00 49.9 50.9

Southern Sonoma County Latest

17 Stations

15 Minute Data | America/Los_Angeles
as of 8/5/21 2:20 AM PDT
Station Date Time Temp (°F) RH (%) Dew Pt (°F) Wind Spd (mph) Wind Dir (°) Wind Gust (mph) Latest Rain (In) Daily Rain (In) Daily Min Temp (°F) Daily Max Temp (°F)
Upper Rincon Valley 8/5/21 0215 52.7   2.0 100   1 52.7   2.3 2.0 S | 174 5.4   4.0 0.00 0.00 52.6   2.4 53.6   2.3
Lower Bennett Valley 8/5/21 0215 55.1   1.4 96   1 54.0   1.2 2.5 SSE | 149 6.4   0.7 0.00 0.00 55.0   1.4 55.3   1.1
Kenwood (Kunde) 8/5/21 0200 55.9   3.8 99   0 55.7   3.8 2.7 WNW | 292 10.8   6.2 0.00 0.00 55.6   6.0 56.4   3.3
Sonoma Valley (Bedrock) 8/5/21 0215 55.8   7.4 86   0 51.6   7.2 4.1 NNW | 348 10.1   10.1 0.00 0.00 55.6   7.6 56.4   5.4
Sonoma-West (Arnold) 8/5/21 0215 56.9   10.0 87   5 53.1   11.4 0.9 S | 172 5.0   3.9 0.00 0.00 56.2   9.5 57.6   7.0
Sonoma Valley HS 8/5/21 0215 57.8   5.2 87   6 54.0   3.5 1.3 WSW | 248 4.4   2.7 0.00 0.00 56.8   5.1 57.8   4.2
Sonoma East (Bundschu01) 8/5/21 0215 58.0   5.1 87   9 54.2   2.3 3.0 W | 274 6.8   3.3 0.00 0.00 57.4   4.9 58.2   4.6
Schellville (Sasaki) 8/5/21 0215 56.6   3.2 91   3 53.9   2.2 3.1 WSW | 243 7.8   6.0 0.00 0.00 56.4   3.6 57.1   2.7
Sonoma-SE (Napoli) 8/5/21 0215 57.2   4.0 88   5 53.6   2.4 4.9 WSW | 258 9.5   9.5 0.00 0.00 56.6   4.3 57.4   3.9
Carneros (Ranch 71) 8/5/21 0215 55.2   2.3 95   2 53.8   1.8 12.9 W | 264 18.7   12.8 0.00 0.00 55.1   2.3 55.7   2.1
Carneros Upper (Ranch 81) 8/5/21 0215 55.2   2.2 94   1 53.5   1.9 12.4 WSW | 252 17.1   10.2 - - 55.1   2.2 55.7   1.8
Carneros Lower (Ranch 81) 8/5/21 0215 56.3   3.3 92   3 53.9   2.5 1.4 SW | 226 5.7   2.7 0.00 0.00 56.3   3.7 56.9   3.5
Rohnert Park-West (Stony Point) 8/5/21 0215 55.4   0.9 96   1 54.4   1.1 1.9 SW | 232 4.6   0.3 0.00 0.00 55.4   1.0 56.2   0.8
Penngrove (Asellus) 8/5/21 0215 55.2   1.3 97   0 54.4   1.5 1.0 W | 281 2.9   3.2 0.00 0.00 55.0   1.3 55.9   1.0
Roger's Creek (Ranch 50) 8/5/21 0215 53.1   0.7 100   0 53.1   0.7 8.2 W | 268 14.2   7.2 0.00 0.00 52.9   0.7 53.6   0.9
Petaluma (Ranch 10) 8/5/21 0215 56.9   0.9 88   0 53.4   1.0 3.1 WNW | 288 6.5   0.3 0.00 0.00 56.9   1.1 57.3   0.8
Lakeville (Ranch 47) 8/5/21 0215 57.2   4.4 85   6 52.8   2.6 10.2 NNW | 328 15.3   7.9 0.00 0.00 57.0   4.5 57.7   4.0
Max     58.0 100 55.7 12.9 - 18.7 0.00 0.00 57.4 58.2
Avg     55.9 92 53.7 4.4 - 8.9 0.00 - - -
Min     52.7 85 51.6 0.9 - 2.9 0.00 0.00 52.6 53.6

Latest Observations

Map

Hourly Data